METAR Data
IDs: Format: Raw Decoded Include TAF

Data at: 1903 UTC 14 Dec 2018

KTPL 141851Z AUTO 31017G22KT 10SM OVC016 07/04 A3002 RMK AO2 SLP182 T00720039
KTPL 141751Z AUTO 31017G24KT 10SM OVC016 07/04 A3003 RMK AO2 PK WND 34027/1659 SLP187 60000 T00670039 10067 20050 50012
KTPL 141651Z AUTO 32021G28KT 10SM OVC016 06/04 A3004 RMK AO2 PK WND 33028/1651 SLP189 T00610039
KTPL 141624Z AUTO 32018G23KT 10SM OVC016 06/04 A3003 RMK AO2 PK WND 33028/1613
KTPL 141551Z AUTO 33021G28KT 10SM OVC014 06/04 A3002 RMK AO2 PK WND 33030/1532 SLP181 T00610039
KTPL 141451Z AUTO 32021G27KT 10SM OVC012 05/03 A3000 RMK AO2 PK WND 32027/1450 SLP174 60000 T00500033 51021
KTPL 141351Z AUTO 32020G26KT 10SM OVC014 05/03 A2998 RMK AO2 PK WND 32026/1345 SLP169 T00500033
KTPL 141251Z AUTO 31015G21KT 10SM OVC012 05/04 A2996 RMK AO2 RAE15 SLP162 P0000 T00500039
KTPL 141230Z AUTO 30018G21KT 10SM OVC010 05/04 A2995 RMK AO2 RAE15 CIG 007V013 P0000
KTPL 141151Z AUTO 30016G23KT 7SM -RA OVC008 05/04 A2993 RMK AO2 SLP155 P0000 60001 70002 T00500044 10056 20044 53025
KTPL 141127Z AUTO 30016G22KT 7SM -RA OVC008 05/04 A2992 RMK AO2 CIG 007V012 P0000
KTPL 141051Z AUTO 31018G27KT 7SM -RA BKN010 OVC014 05/04 A2990 RMK AO2 PK WND 30027/1043 CIG 005V011 SLP142 P0001 T00500044
KTPL 141021Z AUTO 30014KT 6SM -RA BR OVC008 06/05 A2989 RMK AO2 CIG 006V011 P0000
KTPL 140951Z AUTO 30015KT 7SM -RA BKN010 OVC017 05/04 A2988 RMK AO2 PK WND 29028/0917 RAB05 CIG 007V013 SLP138 P0000 T00500044
KTPL 140942Z AUTO 30017G23KT 8SM -RA BKN010 OVC019 05/04 A2988 RMK AO2 PK WND 29028/0917 RAB05 CIG 008V013 P0000
KTPL 140932Z AUTO 30020G26KT 8SM -RA SCT010 OVC019 05/04 A2987 RMK AO2 PK WND 29028/0917 RAB05 P0000
KTPL 140851Z AUTO 31016G26KT 10SM BKN012 OVC017 04/04 A2986 RMK AO2 PK WND 30028/0811 SLP127 60000 T00440039 51009
KTPL 140751Z AUTO 30016G27KT 10SM OVC010 04/04 A2985 RMK AO2 PK WND 31027/0744 RAE06 CIG 008V014 SLP126 P0000 T00440039
KTPL 140651Z AUTO 29017G24KT 7SM -RA OVC008 05/04 A2985 RMK AO2 CIG 006V011 SLP123 P0000 T00500044
KTPL 140551Z AUTO 30017G23KT 7SM -RA OVC008 04/04 A2983 RMK AO2 PK WND 30027/0529 RAE07B30 SLP118 P0000 60001 T00440044 10078 20044 402060044 53005
KTPL 140533Z AUTO 29015G27KT 7SM -RA OVC008 04/04 A2983 RMK AO2 PK WND 30027/0529 RAE07B30 CIG 006V012 P0000
KTPL 140519Z AUTO 29013G20KT 10SM OVC010 05/04 A2983 RMK AO2 RAE07 CIG 006V013 P0000
KTPL 140451Z AUTO 29017G25KT 7SM -RA OVC006 05/05 A2982 RMK AO2 CIG 005V010 SLP115 P0001 T00500050
KTPL 140351Z AUTO 28014KT 4SM -RA BR OVC006 05/05 A2982 RMK AO2 RAB14 SLP114 P0000 T00500050
KTPL 140326Z AUTO 28017G24KT 5SM -RA BR BKN008 OVC012 05/04 A2981 RMK AO2 RAB14 P0000
KTPL 140251Z AUTO 28018G23KT 10SM OVC014 06/03 A2981 RMK AO2 PK WND 27027/0159 SLP113 T00610033 53004
KTPL 140151Z AUTO 27017G24KT 10SM OVC014 06/03 A2981 RMK AO2 PK WND 27026/0112 SLP112 T00610033
KTPL 140132Z AUTO 27011G18KT 10SM OVC014 06/04 A2981 RMK AO2 PK WND 27026/0112
KTPL 140051Z AUTO 28019G27KT 10SM OVC021 07/03 A2980 RMK AO2 PK WND 28027/0048 SLP108 T00720028
KTPL 140011Z AUTO 26015G26KT 10SM BKN023 08/03 A2981 RMK AO2 PK WND 27026/0008
KTPL 132351Z AUTO 27014G25KT 10SM FEW023 08/03 A2980 RMK AO2 PK WND 26030/2259 SLP108 T00780033 10194 20078 51030
KTPL 132251Z AUTO 28024G30KT 10SM CLR 12/06 A2977 RMK AO2 PK WND 27030/2249 SLP095 T01220056
KTPL 132151Z AUTO 27020G25KT 10SM CLR 15/04 A2975 RMK AO2 PK WND 28034/2125 SLP085 T01500044
KTPL 132051Z AUTO 28016G23KT 10SM CLR 17/03 A2971 RMK AO2 PK WND 27026/2010 SLP072 T01720028 55003
KTPL 131951Z AUTO 25017KT 10SM FEW050 SCT095 19/06 A2971 RMK AO2 SLP070 T01890056
KTPL 131851Z AUTO 27016G22KT 10SM FEW095 19/07 A2971 RMK AO2 SLP071 T01890072
KTPL 131751Z AUTO 27011KT 10SM BKN085 18/09 A2972 RMK AO2 SLP075 T01780089 10206 20150 58004
KTPL 131651Z AUTO 23011KT 10SM CLR 19/12 A2973 RMK AO2 SLP077 T01940122
KTPL 131551Z AUTO 19011KT 10SM CLR 17/16 A2973 RMK AO2 SLP078 T01720156
KTPL 131451Z AUTO 18007KT 9SM FEW110 16/16 A2973 RMK AO2 SLP081 T01560156 53009
KTPL 131351Z AUTO 16007KT 10SM FEW020 15/15 A2972 RMK AO2 SLP077 T01500150
KTPL 131343Z AUTO 15007KT 10SM FEW015 SCT022 SCT110 15/15 A2972 RMK AO2
KTPL 131324Z AUTO 16007KT 9SM SCT013 BKN022 BKN110 15/15 A2972 RMK AO2
KTPL 131302Z AUTO 17008KT 10SM SCT015 SCT110 15/15 A2971 RMK AO2
KTPL 131251Z AUTO 17009KT 10SM BKN015 BKN020 15/15 A2971 RMK AO2 SLP071 T01500150
KTPL 131219Z AUTO 16008KT 9SM FEW010 OVC015 16/16 A2971 RMK AO2
KTPL 131151Z AUTO 15005KT 7SM OVC011 16/16 A2971 RMK AO2 SLP070 60000 T01560156 10167 20150 55014
KTPL 131051Z AUTO 17006KT 5SM BR BKN013 16/16 A2969 RMK AO2 SLP065 T01560156
KTPL 130951Z AUTO 18007KT 5SM BR CLR 16/16 A2971 RMK AO2 SLP070 T01610161
KTPL 130939Z AUTO 18007KT 5SM BR SCT010 SCT014 16/16 A2971 RMK AO2
KTPL 130913Z AUTO 19007KT 6SM BR OVC006 17/17 A2973 RMK AO2 CIG 003V010
KTPL 130851Z AUTO 19007KT 6SM BR OVC004 17/17 A2975 RMK AO2 RAB0753E10 SLP084 P0000 60000 T01670167 58024
KTPL 130751Z AUTO 18012KT 6SM BR OVC004 17/17 A2978 RMK AO2 RAB12E29 SLP095 P0000 T01670167